sensor_id;sensor_type;location;lat;lon;timestamp;temperature;humidity
54126;DHT22;40360;52.992;6.796;2023-04-25T00:01:36;6.80;99.90
54126;DHT22;40360;52.992;6.796;2023-04-25T00:04:03;6.80;99.90
54126;DHT22;40360;52.992;6.796;2023-04-25T00:06:32;6.80;99.90
54126;DHT22;40360;52.992;6.796;2023-04-25T00:08:57;6.70;99.90
54126;DHT22;40360;52.992;6.796;2023-04-25T00:11:23;6.70;99.90
54126;DHT22;40360;52.992;6.796;2023-04-25T00:13:49;6.70;99.90
54126;DHT22;40360;52.992;6.796;2023-04-25T00:16:18;6.70;99.90
54126;DHT22;40360;52.992;6.796;2023-04-25T00:18:44;6.70;99.90
54126;DHT22;40360;52.992;6.796;2023-04-25T00:21:11;6.80;99.90
54126;DHT22;40360;52.992;6.796;2023-04-25T00:23:37;6.70;99.90
54126;DHT22;40360;52.992;6.796;2023-04-25T00:26:04;6.70;99.90
54126;DHT22;40360;52.992;6.796;2023-04-25T00:28:30;6.70;99.90
54126;DHT22;40360;52.992;6.796;2023-04-25T00:30:55;6.70;99.90
54126;DHT22;40360;52.992;6.796;2023-04-25T00:33:21;6.70;99.90
54126;DHT22;40360;52.992;6.796;2023-04-25T00:35:46;6.70;99.90
54126;DHT22;40360;52.992;6.796;2023-04-25T00:38:12;6.70;99.90
54126;DHT22;40360;52.992;6.796;2023-04-25T00:40:38;6.70;99.90
54126;DHT22;40360;52.992;6.796;2023-04-25T00:43:04;6.70;99.90
54126;DHT22;40360;52.992;6.796;2023-04-25T00:45:30;6.70;99.90
54126;DHT22;40360;52.992;6.796;2023-04-25T00:47:56;6.70;99.90
54126;DHT22;40360;52.992;6.796;2023-04-25T00:50:22;6.70;99.90
54126;DHT22;40360;52.992;6.796;2023-04-25T00:52:48;6.70;99.90
54126;DHT22;40360;52.992;6.796;2023-04-25T00:55:14;6.60;99.90
54126;DHT22;40360;52.992;6.796;2023-04-25T00:57:41;6.70;99.90
54126;DHT22;40360;52.992;6.796;2023-04-25T01:00:08;6.60;99.90
54126;DHT22;40360;52.992;6.796;2023-04-25T01:02:35;6.60;99.90
54126;DHT22;40360;52.992;6.796;2023-04-25T01:05:02;6.60;99.90
54126;DHT22;40360;52.992;6.796;2023-04-25T01:07:28;6.60;99.90
54126;DHT22;40360;52.992;6.796;2023-04-25T01:09:54;6.60;99.90
54126;DHT22;40360;52.992;6.796;2023-04-25T01:12:19;6.60;99.90
54126;DHT22;40360;52.992;6.796;2023-04-25T01:14:45;6.50;99.90
54126;DHT22;40360;52.992;6.796;2023-04-25T01:17:11;6.60;99.90
54126;DHT22;40360;52.992;6.796;2023-04-25T01:19:37;6.50;99.90
54126;DHT22;40360;52.992;6.796;2023-04-25T01:22:03;6.50;99.90
54126;DHT22;40360;52.992;6.796;2023-04-25T01:24:31;6.50;99.90
54126;DHT22;40360;52.992;6.796;2023-04-25T01:26:58;6.50;99.90
54126;DHT22;40360;52.992;6.796;2023-04-25T01:29:26;6.50;99.90
54126;DHT22;40360;52.992;6.796;2023-04-25T01:31:53;6.50;99.90
54126;DHT22;40360;52.992;6.796;2023-04-25T01:34:19;6.50;99.90
54126;DHT22;40360;52.992;6.796;2023-04-25T01:36:45;6.40;99.90
54126;DHT22;40360;52.992;6.796;2023-04-25T01:39:12;6.50;99.90
54126;DHT22;40360;52.992;6.796;2023-04-25T01:41:37;6.40;99.90
54126;DHT22;40360;52.992;6.796;2023-04-25T01:44:03;6.40;99.90
54126;DHT22;40360;52.992;6.796;2023-04-25T01:46:30;6.40;99.90
54126;DHT22;40360;52.992;6.796;2023-04-25T01:48:56;6.30;99.90
54126;DHT22;40360;52.992;6.796;2023-04-25T01:51:21;6.30;99.90
54126;DHT22;40360;52.992;6.796;2023-04-25T01:53:47;6.20;99.90
54126;DHT22;40360;52.992;6.796;2023-04-25T01:56:13;6.20;99.90
54126;DHT22;40360;52.992;6.796;2023-04-25T01:58:38;6.20;99.90
54126;DHT22;40360;52.992;6.796;2023-04-25T02:01:04;6.10;99.90
54126;DHT22;40360;52.992;6.796;2023-04-25T02:03:31;6.20;99.90
54126;DHT22;40360;52.992;6.796;2023-04-25T02:05:57;6.20;99.90
54126;DHT22;40360;52.992;6.796;2023-04-25T02:08:23;6.10;99.90
54126;DHT22;40360;52.992;6.796;2023-04-25T02:10:48;6.20;99.90
54126;DHT22;40360;52.992;6.796;2023-04-25T02:13:14;6.20;99.90
54126;DHT22;40360;52.992;6.796;2023-04-25T02:15:39;6.10;99.90
54126;DHT22;40360;52.992;6.796;2023-04-25T02:18:06;6.10;99.90
54126;DHT22;40360;52.992;6.796;2023-04-25T02:20:32;6.10;99.90
54126;DHT22;40360;52.992;6.796;2023-04-25T02:22:58;6.10;99.90
54126;DHT22;40360;52.992;6.796;2023-04-25T02:25:24;6.10;99.90
54126;DHT22;40360;52.992;6.796;2023-04-25T02:27:50;6.00;99.90
54126;DHT22;40360;52.992;6.796;2023-04-25T02:30:16;6.00;99.90
54126;DHT22;40360;52.992;6.796;2023-04-25T02:32:42;6.00;99.90
54126;DHT22;40360;52.992;6.796;2023-04-25T02:35:09;6.00;99.90
54126;DHT22;40360;52.992;6.796;2023-04-25T02:37:36;6.00;99.90
54126;DHT22;40360;52.992;6.796;2023-04-25T02:40:02;5.90;99.90
54126;DHT22;40360;52.992;6.796;2023-04-25T02:42:29;5.90;99.90
54126;DHT22;40360;52.992;6.796;2023-04-25T02:44:55;5.90;99.90
54126;DHT22;40360;52.992;6.796;2023-04-25T02:47:21;5.90;99.90
54126;DHT22;40360;52.992;6.796;2023-04-25T02:49:46;5.90;99.90
54126;DHT22;40360;52.992;6.796;2023-04-25T02:52:12;5.90;99.90
54126;DHT22;40360;52.992;6.796;2023-04-25T02:54:39;5.90;99.90
54126;DHT22;40360;52.992;6.796;2023-04-25T02:57:05;5.80;99.90
54126;DHT22;40360;52.992;6.796;2023-04-25T02:59:31;5.90;99.90
54126;DHT22;40360;52.992;6.796;2023-04-25T03:01:56;5.80;99.90
54126;DHT22;40360;52.992;6.796;2023-04-25T03:04:22;5.90;99.90
54126;DHT22;40360;52.992;6.796;2023-04-25T03:06:52;5.90;99.90
54126;DHT22;40360;52.992;6.796;2023-04-25T03:09:18;5.80;99.90
54126;DHT22;40360;52.992;6.796;2023-04-25T03:11:45;5.90;99.90
54126;DHT22;40360;52.992;6.796;2023-04-25T03:14:11;5.90;99.90
54126;DHT22;40360;52.992;6.796;2023-04-25T03:16:36;5.90;99.90
54126;DHT22;40360;52.992;6.796;2023-04-25T03:19:03;5.90;99.90
54126;DHT22;40360;52.992;6.796;2023-04-25T03:21:29;5.90;99.90
54126;DHT22;40360;52.992;6.796;2023-04-25T03:23:54;5.90;99.90
54126;DHT22;40360;52.992;6.796;2023-04-25T03:26:20;5.90;99.90
54126;DHT22;40360;52.992;6.796;2023-04-25T03:28:46;5.90;99.90
54126;DHT22;40360;52.992;6.796;2023-04-25T03:31:11;5.90;99.90
54126;DHT22;40360;52.992;6.796;2023-04-25T03:33:37;5.90;99.90
54126;DHT22;40360;52.992;6.796;2023-04-25T03:36:03;5.90;99.90
54126;DHT22;40360;52.992;6.796;2023-04-25T03:38:28;5.90;99.90
54126;DHT22;40360;52.992;6.796;2023-04-25T03:40:54;6.00;99.90
54126;DHT22;40360;52.992;6.796;2023-04-25T03:43:21;5.90;99.90
54126;DHT22;40360;52.992;6.796;2023-04-25T03:45:47;5.90;99.90
54126;DHT22;40360;52.992;6.796;2023-04-25T03:48:12;5.90;99.90
54126;DHT22;40360;52.992;6.796;2023-04-25T03:50:38;5.90;99.90
54126;DHT22;40360;52.992;6.796;2023-04-25T03:53:04;5.90;99.90
54126;DHT22;40360;52.992;6.796;2023-04-25T03:55:29;5.90;99.90
54126;DHT22;40360;52.992;6.796;2023-04-25T03:57:55;5.90;99.90
54126;DHT22;40360;52.992;6.796;2023-04-25T04:00:20;5.90;99.90
54126;DHT22;40360;52.992;6.796;2023-04-25T04:02:46;5.90;99.90
54126;DHT22;40360;52.992;6.796;2023-04-25T04:05:12;5.90;99.90
54126;DHT22;40360;52.992;6.796;2023-04-25T04:07:37;5.90;99.90
54126;DHT22;40360;52.992;6.796;2023-04-25T04:10:09;5.80;99.90
54126;DHT22;40360;52.992;6.796;2023-04-25T04:12:35;5.80;99.90
54126;DHT22;40360;52.992;6.796;2023-04-25T04:15:03;5.80;99.90
54126;DHT22;40360;52.992;6.796;2023-04-25T04:17:29;5.80;99.90
54126;DHT22;40360;52.992;6.796;2023-04-25T04:19:55;5.80;99.90
54126;DHT22;40360;52.992;6.796;2023-04-25T04:22:21;5.80;99.90
54126;DHT22;40360;52.992;6.796;2023-04-25T04:24:47;5.80;99.90
54126;DHT22;40360;52.992;6.796;2023-04-25T04:27:13;5.70;99.90
54126;DHT22;40360;52.992;6.796;2023-04-25T04:29:38;5.80;99.90
54126;DHT22;40360;52.992;6.796;2023-04-25T04:32:04;5.60;99.90
54126;DHT22;40360;52.992;6.796;2023-04-25T04:34:30;5.60;99.90
54126;DHT22;40360;52.992;6.796;2023-04-25T04:36:56;5.60;99.90
54126;DHT22;40360;52.992;6.796;2023-04-25T04:39:22;5.50;99.90
54126;DHT22;40360;52.992;6.796;2023-04-25T04:41:48;5.50;99.90
54126;DHT22;40360;52.992;6.796;2023-04-25T04:44:14;5.50;99.90
54126;DHT22;40360;52.992;6.796;2023-04-25T04:46:40;5.50;99.90
54126;DHT22;40360;52.992;6.796;2023-04-25T04:49:10;5.40;99.90
54126;DHT22;40360;52.992;6.796;2023-04-25T04:51:36;5.40;99.90
54126;DHT22;40360;52.992;6.796;2023-04-25T04:54:02;5.50;99.90
54126;DHT22;40360;52.992;6.796;2023-04-25T04:56:31;5.40;99.90
54126;DHT22;40360;52.992;6.796;2023-04-25T04:58:58;5.40;99.90
54126;DHT22;40360;52.992;6.796;2023-04-25T05:01:24;5.40;99.90
54126;DHT22;40360;52.992;6.796;2023-04-25T05:03:51;5.40;99.90
54126;DHT22;40360;52.992;6.796;2023-04-25T05:06:18;5.40;99.90
54126;DHT22;40360;52.992;6.796;2023-04-25T05:08:44;5.40;99.90
54126;DHT22;40360;52.992;6.796;2023-04-25T05:11:09;5.50;99.90
54126;DHT22;40360;52.992;6.796;2023-04-25T05:13:35;5.50;99.90
54126;DHT22;40360;52.992;6.796;2023-04-25T05:16:01;5.40;99.90
54126;DHT22;40360;52.992;6.796;2023-04-25T05:18:26;5.50;99.90
54126;DHT22;40360;52.992;6.796;2023-04-25T05:20:52;5.50;99.90
54126;DHT22;40360;52.992;6.796;2023-04-25T05:23:18;5.40;99.90
54126;DHT22;40360;52.992;6.796;2023-04-25T05:25:44;5.40;99.90
54126;DHT22;40360;52.992;6.796;2023-04-25T05:28:12;5.50;99.90
54126;DHT22;40360;52.992;6.796;2023-04-25T05:30:37;5.50;99.90
54126;DHT22;40360;52.992;6.796;2023-04-25T05:33:03;5.50;99.90
54126;DHT22;40360;52.992;6.796;2023-04-25T05:35:29;5.60;99.90
54126;DHT22;40360;52.992;6.796;2023-04-25T05:37:54;5.60;99.90
54126;DHT22;40360;52.992;6.796;2023-04-25T05:40:20;5.70;99.90
54126;DHT22;40360;52.992;6.796;2023-04-25T05:42:46;5.60;99.90
54126;DHT22;40360;52.992;6.796;2023-04-25T06:00:04;5.60;99.90
54126;DHT22;40360;52.992;6.796;2023-04-25T06:02:34;5.60;99.90
54126;DHT22;40360;52.992;6.796;2023-04-25T06:04:59;5.70;99.90
54126;DHT22;40360;52.992;6.796;2023-04-25T06:07:25;5.70;99.90
54126;DHT22;40360;52.992;6.796;2023-04-25T06:09:51;5.80;99.90
54126;DHT22;40360;52.992;6.796;2023-04-25T06:12:16;5.80;99.90
54126;DHT22;40360;52.992;6.796;2023-04-25T06:14:42;5.90;99.90
54126;DHT22;40360;52.992;6.796;2023-04-25T06:17:07;6.10;99.90
54126;DHT22;40360;52.992;6.796;2023-04-25T06:19:35;6.10;99.90
54126;DHT22;40360;52.992;6.796;2023-04-25T06:22:01;6.20;99.90
54126;DHT22;40360;52.992;6.796;2023-04-25T06:24:27;6.30;99.90
54126;DHT22;40360;52.992;6.796;2023-04-25T06:26:53;6.30;99.90
54126;DHT22;40360;52.992;6.796;2023-04-25T06:29:19;6.30;99.90
54126;DHT22;40360;52.992;6.796;2023-04-25T06:31:44;6.40;99.90
54126;DHT22;40360;52.992;6.796;2023-04-25T06:34:10;6.50;99.90
54126;DHT22;40360;52.992;6.796;2023-04-25T06:36:36;6.60;99.90
54126;DHT22;40360;52.992;6.796;2023-04-25T06:39:01;6.60;99.90
54126;DHT22;40360;52.992;6.796;2023-04-25T06:41:27;6.70;99.90
54126;DHT22;40360;52.992;6.796;2023-04-25T06:43:53;6.80;99.90
54126;DHT22;40360;52.992;6.796;2023-04-25T06:46:19;6.80;99.90
54126;DHT22;40360;52.992;6.796;2023-04-25T06:48:44;6.80;99.90
54126;DHT22;40360;52.992;6.796;2023-04-25T06:51:10;6.70;99.90
54126;DHT22;40360;52.992;6.796;2023-04-25T06:53:36;6.70;99.90
54126;DHT22;40360;52.992;6.796;2023-04-25T06:56:02;6.80;99.90
54126;DHT22;40360;52.992;6.796;2023-04-25T06:58:28;6.80;99.90
54126;DHT22;40360;52.992;6.796;2023-04-25T07:00:54;6.90;99.90
54126;DHT22;40360;52.992;6.796;2023-04-25T07:03:19;7.10;99.90
54126;DHT22;40360;52.992;6.796;2023-04-25T07:05:45;7.20;99.90
54126;DHT22;40360;52.992;6.796;2023-04-25T07:08:11;7.30;99.90
54126;DHT22;40360;52.992;6.796;2023-04-25T07:10:37;7.40;99.90
54126;DHT22;40360;52.992;6.796;2023-04-25T07:13:02;7.50;99.90
54126;DHT22;40360;52.992;6.796;2023-04-25T07:15:28;7.70;99.90
54126;DHT22;40360;52.992;6.796;2023-04-25T07:17:54;7.80;99.90
54126;DHT22;40360;52.992;6.796;2023-04-25T07:20:19;7.80;99.90
54126;DHT22;40360;52.992;6.796;2023-04-25T07:22:45;7.90;99.90
54126;DHT22;40360;52.992;6.796;2023-04-25T07:25:11;8.00;99.90
54126;DHT22;40360;52.992;6.796;2023-04-25T07:27:36;7.90;99.90
54126;DHT22;40360;52.992;6.796;2023-04-25T07:30:02;8.00;99.90
54126;DHT22;40360;52.992;6.796;2023-04-25T07:32:29;7.90;99.90
54126;DHT22;40360;52.992;6.796;2023-04-25T07:34:55;7.90;99.90
54126;DHT22;40360;52.992;6.796;2023-04-25T07:37:21;7.90;99.90
54126;DHT22;40360;52.992;6.796;2023-04-25T07:39:46;7.80;99.90
54126;DHT22;40360;52.992;6.796;2023-04-25T07:42:12;7.80;99.90
54126;DHT22;40360;52.992;6.796;2023-04-25T07:44:38;7.70;99.90
54126;DHT22;40360;52.992;6.796;2023-04-25T07:47:09;7.70;99.90
54126;DHT22;40360;52.992;6.796;2023-04-25T07:49:37;7.90;99.90
54126;DHT22;40360;52.992;6.796;2023-04-25T07:52:04;8.10;99.90
54126;DHT22;40360;52.992;6.796;2023-04-25T07:54:31;8.10;99.90
54126;DHT22;40360;52.992;6.796;2023-04-25T07:56:58;8.30;99.90
54126;DHT22;40360;52.992;6.796;2023-04-25T07:59:24;8.50;99.90
54126;DHT22;40360;52.992;6.796;2023-04-25T08:01:49;8.60;99.90
54126;DHT22;40360;52.992;6.796;2023-04-25T08:04:15;8.20;99.90
54126;DHT22;40360;52.992;6.796;2023-04-25T08:06:41;8.60;99.90
54126;DHT22;40360;52.992;6.796;2023-04-25T08:09:07;8.60;99.90
54126;DHT22;40360;52.992;6.796;2023-04-25T08:11:35;8.60;99.90
54126;DHT22;40360;52.992;6.796;2023-04-25T08:14:00;8.70;99.90
54126;DHT22;40360;52.992;6.796;2023-04-25T08:16:26;8.70;99.90
54126;DHT22;40360;52.992;6.796;2023-04-25T08:18:51;8.70;99.90
54126;DHT22;40360;52.992;6.796;2023-04-25T08:21:17;8.70;99.90
54126;DHT22;40360;52.992;6.796;2023-04-25T08:23:42;8.70;99.90
54126;DHT22;40360;52.992;6.796;2023-04-25T08:26:11;8.60;99.90
54126;DHT22;40360;52.992;6.796;2023-04-25T08:28:38;8.60;99.90
54126;DHT22;40360;52.992;6.796;2023-04-25T08:31:04;8.50;99.90
54126;DHT22;40360;52.992;6.796;2023-04-25T08:33:30;8.50;99.90
54126;DHT22;40360;52.992;6.796;2023-04-25T08:35:57;8.50;99.90
54126;DHT22;40360;52.992;6.796;2023-04-25T08:38:23;8.90;99.90
54126;DHT22;40360;52.992;6.796;2023-04-25T08:40:50;8.90;99.90
54126;DHT22;40360;52.992;6.796;2023-04-25T08:43:18;9.00;99.90
54126;DHT22;40360;52.992;6.796;2023-04-25T08:45:44;9.10;99.90
54126;DHT22;40360;52.992;6.796;2023-04-25T08:48:13;9.20;99.90
54126;DHT22;40360;52.992;6.796;2023-04-25T08:50:45;9.20;99.90
54126;DHT22;40360;52.992;6.796;2023-04-25T08:53:12;9.20;99.90
54126;DHT22;40360;52.992;6.796;2023-04-25T08:55:42;9.40;99.90
54126;DHT22;40360;52.992;6.796;2023-04-25T08:58:07;9.60;99.90
54126;DHT22;40360;52.992;6.796;2023-04-25T09:00:35;9.70;99.90
54126;DHT22;40360;52.992;6.796;2023-04-25T09:03:01;9.10;99.90
54126;DHT22;40360;52.992;6.796;2023-04-25T09:05:28;8.80;99.90
54126;DHT22;40360;52.992;6.796;2023-04-25T09:07:54;8.20;99.90
54126;DHT22;40360;52.992;6.796;2023-04-25T09:10:19;7.90;99.90
54126;DHT22;40360;52.992;6.796;2023-04-25T09:13:02;7.70;99.90
54126;DHT22;40360;52.992;6.796;2023-04-25T09:15:29;7.60;99.90
54126;DHT22;40360;52.992;6.796;2023-04-25T09:17:56;7.60;99.90
54126;DHT22;40360;52.992;6.796;2023-04-25T09:20:22;7.60;99.90
54126;DHT22;40360;52.992;6.796;2023-04-25T09:22:47;7.80;99.90
54126;DHT22;40360;52.992;6.796;2023-04-25T09:25:13;8.20;99.90
54126;DHT22;40360;52.992;6.796;2023-04-25T09:27:52;8.40;99.90
54126;DHT22;40360;52.992;6.796;2023-04-25T09:30:18;8.50;99.90
54126;DHT22;40360;52.992;6.796;2023-04-25T09:32:56;8.50;99.90
54126;DHT22;40360;52.992;6.796;2023-04-25T09:35:26;8.60;99.90
54126;DHT22;40360;52.992;6.796;2023-04-25T09:37:51;8.50;99.90
54126;DHT22;40360;52.992;6.796;2023-04-25T09:40:18;8.50;99.90
54126;DHT22;40360;52.992;6.796;2023-04-25T09:42:43;8.50;99.90
54126;DHT22;40360;52.992;6.796;2023-04-25T09:45:13;8.70;99.90
54126;DHT22;40360;52.992;6.796;2023-04-25T09:47:40;8.70;99.90
54126;DHT22;40360;52.992;6.796;2023-04-25T09:50:16;8.80;99.90
54126;DHT22;40360;52.992;6.796;2023-04-25T09:52:43;9.00;99.90
54126;DHT22;40360;52.992;6.796;2023-04-25T09:55:08;9.10;99.90
54126;DHT22;40360;52.992;6.796;2023-04-25T09:57:35;9.30;99.90
54126;DHT22;40360;52.992;6.796;2023-04-25T10:00:06;9.50;99.90
54126;DHT22;40360;52.992;6.796;2023-04-25T10:02:35;9.60;99.90
54126;DHT22;40360;52.992;6.796;2023-04-25T10:05:02;9.70;99.90
54126;DHT22;40360;52.992;6.796;2023-04-25T10:07:31;9.90;99.90
54126;DHT22;40360;52.992;6.796;2023-04-25T10:10:00;10.40;99.90
54126;DHT22;40360;52.992;6.796;2023-04-25T10:12:28;10.50;99.90
54126;DHT22;40360;52.992;6.796;2023-04-25T10:14:54;10.10;99.90
54126;DHT22;40360;52.992;6.796;2023-04-25T10:17:20;9.30;99.90
54126;DHT22;40360;52.992;6.796;2023-04-25T10:19:47;8.50;99.90
54126;DHT22;40360;52.992;6.796;2023-04-25T10:22:34;7.90;99.90
54126;DHT22;40360;52.992;6.796;2023-04-25T10:25:01;7.40;99.90
54126;DHT22;40360;52.992;6.796;2023-04-25T10:27:31;7.10;99.90
54126;DHT22;40360;52.992;6.796;2023-04-25T10:30:05;6.90;99.90
54126;DHT22;40360;52.992;6.796;2023-04-25T10:32:32;7.00;99.90
54126;DHT22;40360;52.992;6.796;2023-04-25T10:35:15;7.00;99.90
54126;DHT22;40360;52.992;6.796;2023-04-25T10:38:16;7.10;99.90
54126;DHT22;40360;52.992;6.796;2023-04-25T10:41:02;7.20;99.90
54126;DHT22;40360;52.992;6.796;2023-04-25T10:45:59;7.70;99.90
54126;DHT22;40360;52.992;6.796;2023-04-25T10:48:29;8.00;99.90
54126;DHT22;40360;52.992;6.796;2023-04-25T10:51:10;8.40;99.90
54126;DHT22;40360;52.992;6.796;2023-04-25T10:53:36;8.90;99.90
54126;DHT22;40360;52.992;6.796;2023-04-25T10:57:00;9.40;99.90
54126;DHT22;40360;52.992;6.796;2023-04-25T10:59:19;9.60;99.90
54126;DHT22;40360;52.992;6.796;2023-04-25T11:01:52;9.80;99.90
54126;DHT22;40360;52.992;6.796;2023-04-25T11:09:33;9.10;99.90
54126;DHT22;40360;52.992;6.796;2023-04-25T11:11:59;9.20;99.90
54126;DHT22;40360;52.992;6.796;2023-04-25T11:14:26;9.30;99.90
54126;DHT22;40360;52.992;6.796;2023-04-25T11:16:59;9.40;99.90
54126;DHT22;40360;52.992;6.796;2023-04-25T11:19:25;9.30;99.90
54126;DHT22;40360;52.992;6.796;2023-04-25T11:21:55;9.40;99.90
54126;DHT22;40360;52.992;6.796;2023-04-25T11:24:26;9.40;99.90
54126;DHT22;40360;52.992;6.796;2023-04-25T11:26:52;9.40;99.90
54126;DHT22;40360;52.992;6.796;2023-04-25T11:29:18;9.50;99.90
54126;DHT22;40360;52.992;6.796;2023-04-25T11:31:44;9.40;99.90
54126;DHT22;40360;52.992;6.796;2023-04-25T11:34:11;9.30;99.90
54126;DHT22;40360;52.992;6.796;2023-04-25T11:36:38;9.10;99.90
54126;DHT22;40360;52.992;6.796;2023-04-25T11:39:04;8.90;99.90
54126;DHT22;40360;52.992;6.796;2023-04-25T11:41:31;8.70;99.90
54126;DHT22;40360;52.992;6.796;2023-04-25T11:43:57;8.70;99.90
54126;DHT22;40360;52.992;6.796;2023-04-25T11:46:22;8.50;99.90
54126;DHT22;40360;52.992;6.796;2023-04-25T11:48:48;8.30;99.90
54126;DHT22;40360;52.992;6.796;2023-04-25T11:51:15;8.20;99.90
54126;DHT22;40360;52.992;6.796;2023-04-25T11:53:42;8.20;99.90
54126;DHT22;40360;52.992;6.796;2023-04-25T11:56:11;8.40;99.90
54126;DHT22;40360;52.992;6.796;2023-04-25T11:59:03;8.60;99.90
54126;DHT22;40360;52.992;6.796;2023-04-25T12:01:30;8.70;99.90
54126;DHT22;40360;52.992;6.796;2023-04-25T12:03:57;9.00;99.90
54126;DHT22;40360;52.992;6.796;2023-04-25T12:06:27;9.10;99.90
54126;DHT22;40360;52.992;6.796;2023-04-25T12:09:04;9.20;99.90
54126;DHT22;40360;52.992;6.796;2023-04-25T12:11:40;9.60;99.90
54126;DHT22;40360;52.992;6.796;2023-04-25T12:14:07;9.90;99.90
54126;DHT22;40360;52.992;6.796;2023-04-25T12:16:46;10.00;99.90
54126;DHT22;40360;52.992;6.796;2023-04-25T12:19:19;10.00;99.90
54126;DHT22;40360;52.992;6.796;2023-04-25T12:21:46;10.10;99.90
54126;DHT22;40360;52.992;6.796;2023-04-25T12:24:16;10.10;99.90
54126;DHT22;40360;52.992;6.796;2023-04-25T12:27:03;10.30;99.90
54126;DHT22;40360;52.992;6.796;2023-04-25T12:29:31;10.40;99.90
54126;DHT22;40360;52.992;6.796;2023-04-25T12:31:57;10.60;99.90
54126;DHT22;40360;52.992;6.796;2023-04-25T12:34:23;10.80;99.90
54126;DHT22;40360;52.992;6.796;2023-04-25T12:36:50;10.90;99.90
54126;DHT22;40360;52.992;6.796;2023-04-25T12:39:23;11.10;99.90
54126;DHT22;40360;52.992;6.796;2023-04-25T12:41:52;11.20;99.90
54126;DHT22;40360;52.992;6.796;2023-04-25T12:44:20;11.40;99.90
54126;DHT22;40360;52.992;6.796;2023-04-25T12:46:47;11.60;99.90
54126;DHT22;40360;52.992;6.796;2023-04-25T12:49:13;11.70;99.90
54126;DHT22;40360;52.992;6.796;2023-04-25T12:51:38;11.60;99.90
54126;DHT22;40360;52.992;6.796;2023-04-25T12:54:05;11.20;99.90
54126;DHT22;40360;52.992;6.796;2023-04-25T12:56:34;10.70;99.90
54126;DHT22;40360;52.992;6.796;2023-04-25T12:59:01;10.50;99.90
54126;DHT22;40360;52.992;6.796;2023-04-25T13:01:29;10.50;99.90
54126;DHT22;40360;52.992;6.796;2023-04-25T13:03:55;10.70;99.90
54126;DHT22;40360;52.992;6.796;2023-04-25T13:06:21;10.60;99.90
54126;DHT22;40360;52.992;6.796;2023-04-25T13:08:47;10.50;99.90
54126;DHT22;40360;52.992;6.796;2023-04-25T13:11:13;10.40;99.90
54126;DHT22;40360;52.992;6.796;2023-04-25T13:13:40;10.20;99.90
54126;DHT22;40360;52.992;6.796;2023-04-25T13:16:06;10.30;99.90
54126;DHT22;40360;52.992;6.796;2023-04-25T13:18:33;9.90;99.90
54126;DHT22;40360;52.992;6.796;2023-04-25T13:20:58;9.70;99.90
54126;DHT22;40360;52.992;6.796;2023-04-25T13:23:28;9.70;99.90
54126;DHT22;40360;52.992;6.796;2023-04-25T13:25:55;9.50;99.90
54126;DHT22;40360;52.992;6.796;2023-04-25T13:28:21;9.50;99.90
54126;DHT22;40360;52.992;6.796;2023-04-25T13:30:47;9.70;99.90
54126;DHT22;40360;52.992;6.796;2023-04-25T13:33:14;9.50;99.90
54126;DHT22;40360;52.992;6.796;2023-04-25T13:35:41;9.80;99.90
54126;DHT22;40360;52.992;6.796;2023-04-25T13:38:06;10.10;99.90
54126;DHT22;40360;52.992;6.796;2023-04-25T13:40:32;10.60;99.90
54126;DHT22;40360;52.992;6.796;2023-04-25T13:42:58;10.80;99.90
54126;DHT22;40360;52.992;6.796;2023-04-25T13:45:24;10.90;99.90
54126;DHT22;40360;52.992;6.796;2023-04-25T13:47:50;10.80;99.90
54126;DHT22;40360;52.992;6.796;2023-04-25T13:50:16;10.50;99.90
54126;DHT22;40360;52.992;6.796;2023-04-25T13:52:42;10.30;99.90
54126;DHT22;40360;52.992;6.796;2023-04-25T13:55:09;10.00;99.90
54126;DHT22;40360;52.992;6.796;2023-04-25T13:57:35;10.00;99.90
54126;DHT22;40360;52.992;6.796;2023-04-25T14:00:02;10.10;99.90
54126;DHT22;40360;52.992;6.796;2023-04-25T14:02:38;10.10;99.90
54126;DHT22;40360;52.992;6.796;2023-04-25T14:05:04;10.10;99.90
54126;DHT22;40360;52.992;6.796;2023-04-25T14:07:30;10.20;99.90
54126;DHT22;40360;52.992;6.796;2023-04-25T14:09:56;10.30;99.90
54126;DHT22;40360;52.992;6.796;2023-04-25T14:12:23;10.50;99.90
54126;DHT22;40360;52.992;6.796;2023-04-25T14:14:48;10.60;99.90
54126;DHT22;40360;52.992;6.796;2023-04-25T14:17:14;10.40;99.90
54126;DHT22;40360;52.992;6.796;2023-04-25T14:19:40;10.20;99.90
54126;DHT22;40360;52.992;6.796;2023-04-25T14:22:09;10.00;99.90
54126;DHT22;40360;52.992;6.796;2023-04-25T14:24:34;9.60;99.90
54126;DHT22;40360;52.992;6.796;2023-04-25T14:27:00;9.20;99.90
54126;DHT22;40360;52.992;6.796;2023-04-25T14:29:26;8.90;99.90
54126;DHT22;40360;52.992;6.796;2023-04-25T14:31:52;8.70;99.90
54126;DHT22;40360;52.992;6.796;2023-04-25T14:34:18;8.60;99.90
54126;DHT22;40360;52.992;6.796;2023-04-25T14:36:44;8.50;99.90
54126;DHT22;40360;52.992;6.796;2023-04-25T14:39:10;8.60;99.90
54126;DHT22;40360;52.992;6.796;2023-04-25T14:41:35;8.60;99.90
54126;DHT22;40360;52.992;6.796;2023-04-25T14:44:01;8.70;99.90
54126;DHT22;40360;52.992;6.796;2023-04-25T14:46:27;8.90;99.90
54126;DHT22;40360;52.992;6.796;2023-04-25T14:48:52;9.00;99.90
54126;DHT22;40360;52.992;6.796;2023-04-25T14:51:18;9.20;99.90
54126;DHT22;40360;52.992;6.796;2023-04-25T14:53:44;9.50;99.90
54126;DHT22;40360;52.992;6.796;2023-04-25T14:56:09;9.90;99.90
54126;DHT22;40360;52.992;6.796;2023-04-25T14:58:35;10.10;99.90
54126;DHT22;40360;52.992;6.796;2023-04-25T15:01:01;10.10;99.90
54126;DHT22;40360;52.992;6.796;2023-04-25T15:03:26;10.10;99.90
54126;DHT22;40360;52.992;6.796;2023-04-25T15:05:54;9.90;99.90
54126;DHT22;40360;52.992;6.796;2023-04-25T15:08:20;9.90;99.90
54126;DHT22;40360;52.992;6.796;2023-04-25T15:10:46;9.90;99.90
54126;DHT22;40360;52.992;6.796;2023-04-25T15:13:12;10.10;99.90
54126;DHT22;40360;52.992;6.796;2023-04-25T15:15:38;10.30;99.90
54126;DHT22;40360;52.992;6.796;2023-04-25T15:18:04;11.00;99.90
54126;DHT22;40360;52.992;6.796;2023-04-25T15:20:29;11.70;99.90
54126;DHT22;40360;52.992;6.796;2023-04-25T15:22:55;12.70;99.90
54126;DHT22;40360;52.992;6.796;2023-04-25T15:25:21;13.60;99.90
54126;DHT22;40360;52.992;6.796;2023-04-25T15:27:46;14.00;99.90
54126;DHT22;40360;52.992;6.796;2023-04-25T15:30:17;13.50;99.90
54126;DHT22;40360;52.992;6.796;2023-04-25T15:32:44;12.70;99.90
54126;DHT22;40360;52.992;6.796;2023-04-25T15:35:10;12.10;99.90
54126;DHT22;40360;52.992;6.796;2023-04-25T15:37:37;11.80;99.90
54126;DHT22;40360;52.992;6.796;2023-04-25T15:40:08;11.90;99.90
54126;DHT22;40360;52.992;6.796;2023-04-25T15:42:52;11.60;99.90
54126;DHT22;40360;52.992;6.796;2023-04-25T15:45:19;11.20;99.90
54126;DHT22;40360;52.992;6.796;2023-04-25T15:47:46;10.60;99.90
54126;DHT22;40360;52.992;6.796;2023-04-25T15:50:12;10.30;99.90
54126;DHT22;40360;52.992;6.796;2023-04-25T15:52:39;10.10;99.90
54126;DHT22;40360;52.992;6.796;2023-04-25T15:55:05;9.90;99.90
54126;DHT22;40360;52.992;6.796;2023-04-25T15:57:34;10.10;99.90
54126;DHT22;40360;52.992;6.796;2023-04-25T16:00:01;10.60;99.90
54126;DHT22;40360;52.992;6.796;2023-04-25T16:02:29;10.90;99.90
54126;DHT22;40360;52.992;6.796;2023-04-25T16:04:55;10.70;99.90